tititudorancea.com
Station Historical Data
Daily Summary for June 24, 2018 Units:  Metric    English   Both
« Previous Day
Next Day »
Daily Weekly Monthly Yearly Custom
  High: Low: Average:
Temperature: -17.8 °C 5.9 °C 7.6 °C
Dew Point: -17.8 °C 3.3 °C 4.5 °C
Humidity: Humidity % 71 % 81 %
Wind Speed: 0 km/h 0 km/h 9.7 km/h
Wind Gust: 0 km/h - -
Wind:- - South
Pressure: 0 hPa 1029.3 hPa -
Precipitation: 0.25 mm    
Historical Graphs
 
 
Ararat weather Find more about Weather in Ararat, AU


 



 


Tabular Data for June 24, 2018
Time Temperature Dew Point Pressure Wind Wind Speed Wind Gust Humidity Rainfall Rate (Hourly)
-17.8 °C -17.8 °C 0 hPa Calm     Humidity % 0 mm
00:04 7.2 °C 6.5 °C 1029.7 hPa South 9.3 km/h 6.9 km/h 95 % 0 mm
00:09 7.2 °C 6.4 °C 1029.7 hPa South 7.4 km/h 2.9 km/h 95 % 0 mm
00:14 7.2 °C 6.4 °C 1029.7 hPa North 7.4 km/h 6.8 km/h 95 % 0 mm
00:19 7.1 °C 6.2 °C 1029.7 hPa South 5.6 km/h 2.9 km/h 94 % 0 mm
00:24 7.1 °C 6.2 °C 1029.7 hPa South 5.6 km/h 4.2 km/h 94 % 0 mm
00:29 7.1 °C 6.2 °C 1029.7 hPa South 5.6 km/h 4.3 km/h 94 % 0 mm
00:34 7.1 °C 6.2 °C 1029.7 hPa South 5.6 km/h 3.1 km/h 94 % 0 mm
00:39 7.1 °C 6.2 °C 1029.7 hPa South 6.4 km/h 5.6 km/h 94 % 0 mm
00:44 7 °C 6.1 °C 1029.7 hPa South 5.6 km/h 5.5 km/h 94 % 0 mm
00:49 7 °C 6.1 °C 1029.7 hPa South 5.6 km/h 3.5 km/h 94 % 0 mm
00:54 6.9 °C 6.1 °C 1029.3 hPa South 8 km/h 6 km/h 94 % 0 mm
00:59 6.9 °C 6.1 °C 1029.3 hPa South 6.4 km/h 5.8 km/h 94 % 0 mm
01:04 6.9 °C 6.1 °C 1029.3 hPa South 9.3 km/h 8 km/h 94 % 0.25 mm
01:09 6.9 °C 6.1 °C 1029.3 hPa South 7.4 km/h 6.3 km/h 94 % 0.25 mm
01:14 6.9 °C 6.1 °C 1029.3 hPa South 6.4 km/h 4.3 km/h 94 % 0.25 mm
01:19 6.9 °C 6.1 °C 1029.3 hPa South 5.6 km/h 2.3 km/h 94 % 0.25 mm
01:24 6.9 °C 6 °C 1029.3 hPa South 5.6 km/h 4.3 km/h 94 % 0.25 mm
01:29 6.9 °C 6 °C 1029.3 hPa South 5.6 km/h 2.6 km/h 94 % 0.25 mm
01:34 6.9 °C 6 °C 1029.3 hPa South 5.6 km/h 0.3 km/h 94 % 0.25 mm
01:39 6.9 °C 6 °C 1029.3 hPa South 9.3 km/h 5.3 km/h 94 % 0.25 mm
01:44 6.9 °C 6 °C 1029.7 hPa South 5.6 km/h 1.8 km/h 94 % 0.25 mm
01:49 6.8 °C 5.9 °C 1029.7 hPa South 3.7 km/h 2.1 km/h 94 % 0.25 mm
01:54 6.8 °C 5.9 °C 1029.7 hPa South 5.6 km/h 1.9 km/h 94 % 0.25 mm
01:59 6.7 °C 5.8 °C 1029.7 hPa South 5.6 km/h 3.1 km/h 94 % 0.25 mm
02:04 6.7 °C 5.8 °C 1029.7 hPa South 5.6 km/h 1.1 km/h 94 % 0 mm
02:09 6.7 °C 5.8 °C 1029.7 hPa South 3.2 km/h 2.3 km/h 94 % 0 mm
02:14 6.6 °C 5.7 °C 1029.7 hPa South 5.6 km/h 1.8 km/h 94 % 0 mm
02:19 6.6 °C 5.7 °C 1029.7 hPa South 5.6 km/h 2.1 km/h 94 % 0 mm
02:24 6.6 °C 5.7 °C 1029.7 hPa South 5.6 km/h 2.7 km/h 94 % 0 mm
02:29 6.5 °C 5.6 °C 1029.7 hPa South 3.7 km/h 1 km/h 94 % 0 mm
02:34 6.4 °C 5.6 °C 1029.7 hPa South 5.6 km/h 3.9 km/h 94 % 0 mm
02:39 6.4 °C 5.5 °C 1029.7 hPa South 4.8 km/h 3.7 km/h 94 % 0 mm
02:44 6.4 °C 5.5 °C 1029.7 hPa South 5.6 km/h 2.4 km/h 94 % 0 mm
02:49 6.3 °C 5.4 °C 1029.7 hPa South 5.6 km/h 1.1 km/h 94 % 0 mm
02:54 6.3 °C 5.4 °C 1029.7 hPa South 5.6 km/h 3.5 km/h 94 % 0 mm
02:59 6.2 °C 5.3 °C 1029.7 hPa South 5.6 km/h 4.2 km/h 94 % 0 mm
03:04 6.2 °C 5.3 °C 1029.7 hPa South 5.6 km/h 3.2 km/h 94 % 0 mm
03:09 6.2 °C 5.3 °C 1029.7 hPa South 5.6 km/h 4.7 km/h 94 % 0 mm
03:14 6.2 °C 5.3 °C 1029.7 hPa South 7.4 km/h 3.9 km/h 94 % 0 mm
03:19 6.2 °C 5.4 °C 1029.3 hPa South 3.7 km/h 2.6 km/h 95 % 0 mm
03:24 6.2 °C 5.3 °C 1029.7 hPa South 9.7 km/h 8.2 km/h 94 % 0 mm
03:29 6.1 °C 5.2 °C 1029.7 hPa South 6.4 km/h 4 km/h 94 % 0 mm
03:34 6 °C 5.1 °C 1029.3 hPa South 9.7 km/h 9.3 km/h 94 % 0 mm
03:39 5.9 °C 5.1 °C 1029.3 hPa South 11.1 km/h 6 km/h 94 % 0 mm
03:44 6.1 °C 5 °C 1029.3 hPa South 5.6 km/h 5.1 km/h 93 % 0 mm
03:49 6.1 °C 5 °C 1029.3 hPa South 9.3 km/h 6.3 km/h 93 % 0 mm
03:54 6.1 °C 5.1 °C 1029.3 hPa South 5.6 km/h 5.1 km/h 93 % 0 mm
03:59 6.1 °C 4.8 °C 1029.3 hPa South 5.6 km/h 2.7 km/h 92 % 0 mm
04:04 6 °C 4.8 °C 1029.7 hPa South 3.7 km/h 3.4 km/h 92 % 0 mm
04:09 5.9 °C 4.7 °C 1029.7 hPa South 9.3 km/h 2.3 km/h 92 % 0 mm
04:14 5.9 °C 4.6 °C 1029.7 hPa South 3.7 km/h 3.7 km/h 91 % 0 mm
04:19 5.9 °C 4.6 °C 1029.7 hPa South 5.6 km/h 5 km/h 91 % 0 mm
04:24 5.9 °C 4.4 °C 1029.3 hPa South 6.4 km/h 4.2 km/h 90 % 0 mm
04:29 5.9 °C 4.4 °C 1029.3 hPa South 8 km/h 3.7 km/h 90 % 0 mm
04:34 5.9 °C 4.4 °C 1029.3 hPa South 3.7 km/h 3.7 km/h 90 % 0 mm
04:39 6.1 °C 4.4 °C 1029.3 hPa South 8 km/h 4.5 km/h 89 % 0 mm
04:44 6.1 °C 4.3 °C 1029.3 hPa South 9.3 km/h 6 km/h 88 % 0 mm
04:49 6.2 °C 4.2 °C 1029.3 hPa South 5.6 km/h 3.9 km/h 87 % 0 mm
04:54 6.3 °C 4.3 °C 1029.3 hPa South 5.6 km/h 3.9 km/h 87 % 0 mm
04:59 6.3 °C 4.1 °C 1029.3 hPa South 9.3 km/h 6 km/h 86 % 0 mm
05:04 6.4 °C 4.2 °C 1029.3 hPa South 5.6 km/h 1.3 km/h 86 % 0 mm
05:09 6.4 °C 4.2 °C 1029.7 hPa South 5.6 km/h 1.8 km/h 86 % 0 mm
05:14 6.4 °C 4.1 °C 1029.7 hPa South 5.6 km/h 3.2 km/h 85 % 0 mm
05:19 6.4 °C 4.1 °C 1029.7 hPa South 5.6 km/h 3.1 km/h 85 % 0 mm
05:24 6.4 °C 4.1 °C 1029.7 hPa South 11.1 km/h 7.6 km/h 85 % 0 mm
05:29 6.5 °C 4.2 °C 1029.7 hPa South 7.4 km/h 6.6 km/h 85 % 0 mm
05:34 6.6 °C 4.2 °C 1029.7 hPa South 7.4 km/h 3.7 km/h 85 % 0 mm
05:39 6.6 °C 4.2 °C 1029.7 hPa South 3.7 km/h 1 km/h 85 % 0 mm
05:44 6.6 °C 4.3 °C 1029.7 hPa South 1.9 km/h 1.1 km/h 85 % 0 mm
05:49 6.6 °C 4.2 °C 1029.7 hPa South 3.7 km/h 0.2 km/h 85 % 0 mm
05:54 6.6 °C 4.2 °C 1029.7 hPa South 3.7 km/h 1.6 km/h 85 % 0 mm
05:59 6.5 °C 4.3 °C 1029.7 hPa South 5.6 km/h 1.8 km/h 86 % 0 mm
06:04 6.5 °C 4.3 °C 1029.7 hPa South 5.6 km/h 2.9 km/h 86 % 0 mm
06:09 6.4 °C 4.3 °C 1029.7 hPa South 5.6 km/h 1.8 km/h 86 % 0 mm
06:14 6.4 °C 4.3 °C 1029.7 hPa South 5.6 km/h 3.2 km/h 86 % 0 mm
06:19 6.4 °C 4.3 °C 1029.7 hPa South 5.6 km/h 3.1 km/h 86 % 0 mm
06:24 6.4 °C 4.4 °C 1030 hPa South 3.7 km/h 0.8 km/h 87 % 0 mm
06:29 6.4 °C 4.4 °C 1030 hPa South 5.6 km/h 3.5 km/h 87 % 0 mm
06:34 6.5 °C 4.5 °C 1030 hPa South 5.6 km/h 0.6 km/h 87 % 0 mm
06:39 6.4 °C 4.4 °C 1030 hPa South 5.6 km/h 5.8 km/h 87 % 0 mm
06:44 6.4 °C 4.4 °C 1030.4 hPa South 5.6 km/h 2.9 km/h 87 % 0 mm
06:49 6.4 °C 4.4 °C 1030.4 hPa South 3.7 km/h 0.6 km/h 87 % 0 mm
06:54 6.4 °C 4.4 °C 1030.4 hPa Calm     87 % 0 mm
06:59 6.4 °C 4.4 °C 1030.4 hPa South 3.2 km/h 0.8 km/h 87 % 0 mm
07:04 6.4 °C 4.4 °C 1030.4 hPa South 3.7 km/h 3.2 km/h 87 % 0 mm
07:09 6.4 °C 4.6 °C 1030.4 hPa South 5.6 km/h 3.5 km/h 88 % 0 mm
07:14 6.4 °C 4.6 °C 1030.4 hPa South 6.4 km/h 5.5 km/h 88 % 0 mm
07:19 6.5 °C 4.7 °C 1030.4 hPa South 11.1 km/h 5.3 km/h 88 % 0 mm
07:24 6.5 °C 4.7 °C 1030.4 hPa South 5.6 km/h 6.1 km/h 88 % 0 mm
07:29 6.6 °C 4.7 °C 1030.4 hPa South 9.3 km/h 4.7 km/h 88 % 0 mm
07:34 6.6 °C 4.7 °C 1030.4 hPa South 5.6 km/h 3.7 km/h 88 % 0 mm
07:39 6.6 °C 5.3 °C 1030.7 hPa South 5.6 km/h 2.9 km/h 92 % 0 mm
07:44 6.5 °C 4.7 °C 1030.7 hPa South 8 km/h 8.5 km/h 88 % 0 mm
07:49 6.6 °C 4.6 °C 1030.7 hPa South 8 km/h 5.6 km/h 87 % 0 mm
07:54 6.7 °C 4.5 °C 1030.7 hPa South 6.4 km/h 6.9 km/h 86 % 0 mm
07:59 6.7 °C 4.4 °C 1030.7 hPa South 14.8 km/h 7.7 km/h 85 % 0 mm
08:04 6.8 °C 4.5 °C 1030.7 hPa South 7.4 km/h 5.3 km/h 85 % 0 mm
08:09 6.9 °C 4.6 °C 1030.7 hPa South 9.3 km/h 5.5 km/h 85 % 0 mm
08:14 6.9 °C 4.4 °C 1030.7 hPa South 8 km/h 8.2 km/h 84 % 0 mm
08:19 6.9 °C 4.4 °C 1030.7 hPa South 11.3 km/h 9.8 km/h 84 % 0 mm
08:24 7.1 °C 4.4 °C 1031 hPa South 13 km/h 5.6 km/h 83 % 0 mm
08:29 7.1 °C 4.4 °C 1031 hPa South 9.3 km/h 4.3 km/h 83 % 0 mm
08:34 7.2 °C 4.3 °C 1031 hPa South 13 km/h 6.3 km/h 82 % 0 mm
08:39 7.2 °C 4.3 °C 1031 hPa South 9.3 km/h 6 km/h 82 % 0 mm
08:42 7.3 °C 4.4 °C 1031 hPa South 11.1 km/h 2.4 km/h 82 % 0 mm
08:49 7.6 °C 4.3 °C 1031 hPa SSE 16.7 km/h 5.8 km/h 80 % 0 mm
08:54 7.6 °C 4.3 °C 1031 hPa SSE 8 km/h 4.8 km/h 80 % 0 mm
08:59 7.6 °C 4.5 °C 1031 hPa SSE 5.6 km/h 1.3 km/h 81 % 0 mm
09:04 7.7 °C 4.6 °C 1031 hPa SSE 3.7 km/h 0.5 km/h 81 % 0 mm
09:09 7.7 °C 4.8 °C 1031 hPa SSE 9.3 km/h 6.8 km/h 82 % 0 mm
09:14 7.7 °C 4.7 °C 1031 hPa SSE 8 km/h 7.2 km/h 81 % 0 mm
09:19 7.7 °C 4.6 °C 1031 hPa SSE 8 km/h 8.9 km/h 81 % 0 mm
09:24 7.7 °C 4.7 °C 1031 hPa SSE 11.1 km/h 7.6 km/h 81 % 0 mm
09:29 7.8 °C 4.7 °C 1031 hPa SSE 7.4 km/h 8.7 km/h 81 % 0 mm
09:34 7.8 °C 4.7 °C 1031 hPa SSE 8 km/h 4.7 km/h 81 % 0 mm
09:39 7.8 °C 4.7 °C 1031 hPa SSE 11.1 km/h 4.3 km/h 81 % 0 mm
09:44 7.8 °C 4.6 °C 1031.4 hPa SSE 13 km/h 11.1 km/h 80 % 0 mm
09:49 7.9 °C 4.5 °C 1031.4 hPa SSE 13 km/h 6.1 km/h 79 % 0 mm
09:54 8.1 °C 4.7 °C 1031.4 hPa SSE 14.8 km/h 8.5 km/h 79 % 0 mm
09:59 8.2 °C 4.9 °C 1031.4 hPa SSE 9.7 km/h 2.3 km/h 80 % 0 mm
10:04 8.2 °C 4.9 °C 1031.4 hPa SSE 13 km/h 11.6 km/h 80 % 0 mm
10:09 8.2 °C 4.6 °C 1031.4 hPa SSE 9.7 km/h 9 km/h 78 % 0 mm
10:14 8.2 °C 4.6 °C 1031.4 hPa SSE 14.8 km/h 14 km/h 78 % 0 mm
10:19 8.2 °C 4.4 °C 1031.4 hPa South 13 km/h 10 km/h 77 % 0 mm
10:24 8.3 °C 4.5 °C 1031.4 hPa SSE 13 km/h 9.7 km/h 77 % 0 mm
10:29 8.2 °C 4.2 °C 1031.4 hPa South 18.5 km/h 8.9 km/h 76 % 0 mm
10:34 8.3 °C 4.7 °C 1031.4 hPa SSE 16.7 km/h 10.3 km/h 78 % 0 mm
10:39 8.3 °C 4.6 °C 1031.4 hPa SSE 14.8 km/h 9 km/h 77 % 0 mm
10:44 8.4 °C 4.6 °C 1031.4 hPa SSE 12.9 km/h 10.5 km/h 77 % 0 mm
10:49 8.3 °C 4.7 °C 1031.4 hPa SSE 14.8 km/h 7.7 km/h 78 % 0 mm
10:54 8.4 °C 4.6 °C 1031.4 hPa South 18.5 km/h 12.9 km/h 77 % 0 mm
10:59 8.4 °C 4.7 °C 1031.4 hPa SSE 16.7 km/h 11.7 km/h 77 % 0 mm
11:04 8.5 °C 4.5 °C 1031.4 hPa South 20.4 km/h 14.5 km/h 76 % 0 mm
11:09 8.5 °C 4.7 °C 1031.4 hPa South 11.3 km/h 6 km/h 77 % 0 mm
11:14 8.6 °C 4.6 °C 1031.4 hPa South 20.4 km/h 13.5 km/h 76 % 0 mm
11:19 8.5 °C 4.5 °C 1031.4 hPa South 13 km/h 5.1 km/h 76 % 0 mm
11:24 8.6 °C 4.8 °C 1031.4 hPa South 9.3 km/h 3.5 km/h 77 % 0 mm
11:29 8.6 °C 4.6 °C 1031.4 hPa South 7.4 km/h 2.3 km/h 76 % 0 mm
11:34 8.6 °C 4.6 °C 1031.4 hPa South 13 km/h 7.2 km/h 76 % 0 mm
11:39 8.5 °C 4.5 °C 1031.4 hPa South 14.8 km/h 10 km/h 76 % 0 mm
11:44 8.6 °C 4.8 °C 1031 hPa South 18.5 km/h 8.2 km/h 77 % 0 mm
11:49 8.6 °C 4.8 °C 1031 hPa South 14.8 km/h 8 km/h 77 % 0 mm
11:54 8.5 °C 4.5 °C 1031 hPa South 16.7 km/h 10.5 km/h 76 % 0 mm
11:59 8.6 °C 4.6 °C 1031 hPa South 16.7 km/h 9.5 km/h 76 % 0 mm
12:04 8.6 °C 4.6 °C 1031 hPa South 13 km/h 10.3 km/h 76 % 0 mm
12:09 8.5 °C 4.3 °C 1031 hPa South 14.8 km/h 4.7 km/h 75 % 0 mm
12:14 8.6 °C 4.6 °C 1031 hPa South 16.7 km/h 10.5 km/h 76 % 0 mm
12:19 8.6 °C 4.6 °C 1031 hPa SSE 18.5 km/h 10.9 km/h 76 % 0 mm
12:24 8.7 °C 4.5 °C 1031 hPa South 20.4 km/h 11.3 km/h 75 % 0 mm
12:29 8.8 °C 4.6 °C 1030.7 hPa SSE 14.8 km/h 10.9 km/h 75 % 0 mm
12:34 8.8 °C 4.7 °C 1030.7 hPa South 11.1 km/h 6 km/h 75 % 0 mm
12:39 8.8 °C 4.4 °C 1030.7 hPa South 17.7 km/h 13.2 km/h 74 % 0 mm
12:44 8.8 °C 4.4 °C 1030.7 hPa South 18.5 km/h 11.7 km/h 74 % 0 mm
12:49 8.8 °C 4.6 °C 1030.4 hPa South 18.5 km/h 10.9 km/h 75 % 0 mm
12:54 8.8 °C 4.6 °C 1030.4 hPa South 11.1 km/h 6.8 km/h 75 % 0 mm
12:59 8.8 °C 4.4 °C 1030.4 hPa South 11.3 km/h 10.3 km/h 74 % 0 mm
13:04 8.8 °C 4.7 °C 1030.4 hPa South 16.7 km/h 12.1 km/h 75 % 0 mm
13:09 8.7 °C 4.6 °C 1030.4 hPa South 18.5 km/h 11.3 km/h 75 % 0 mm
13:14 8.8 °C 4.6 °C 1030.4 hPa South 16.7 km/h 8.2 km/h 75 % 0 mm
13:19 8.8 °C 4.6 °C 1030.4 hPa South 16.7 km/h 11.4 km/h 75 % 0 mm
13:24 8.9 °C 4.7 °C 1030.4 hPa South 14.8 km/h 10.5 km/h 75 % 0 mm
13:29 8.9 °C 4.6 °C 1030 hPa South 13 km/h 11.6 km/h 74 % 0 mm
13:34 9 °C 4.6 °C 1030 hPa South 16.7 km/h 8.9 km/h 74 % 0 mm
13:39 9 °C 4.6 °C 1030 hPa SSE 16.7 km/h 11.7 km/h 74 % 0 mm
13:44 9 °C 4.8 °C 1030 hPa SSE 11.1 km/h 8.9 km/h 75 % 0 mm
13:49 9.1 °C 4.8 °C 1030 hPa SSE 9.3 km/h 7.1 km/h 75 % 0 mm
13:54 8.9 °C 4.6 °C 1030 hPa SSE 13 km/h 9.3 km/h 74 % 0 mm
13:59 8.8 °C 4.7 °C 1030 hPa SSE 9.7 km/h 4.8 km/h 75 % 0 mm
14:04 8.9 °C 4.9 °C 1030 hPa South 13 km/h 8 km/h 76 % 0 mm
14:09 8.8 °C 4.7 °C 1030 hPa South 14.8 km/h 10.5 km/h 75 % 0 mm
14:14 8.9 °C 4.9 °C 1029.7 hPa South 16.1 km/h 13.8 km/h 76 % 0 mm
14:19 8.8 °C 4.8 °C 1029.7 hPa South 18.5 km/h 13.2 km/h 76 % 0 mm
14:24 8.7 °C 5.1 °C 1029.7 hPa South 11.1 km/h 9.3 km/h 78 % 0 mm
14:29 8.7 °C 5.1 °C 1029.7 hPa South 13 km/h 10.8 km/h 78 % 0 mm
14:34 8.8 °C 5.2 °C 1029.7 hPa South 14.8 km/h 11.3 km/h 78 % 0 mm
14:39 8.8 °C 5 °C 1029.7 hPa South 11.3 km/h 10.3 km/h 77 % 0 mm
14:44 8.8 °C 4.9 °C 1029.7 hPa South 11.3 km/h 11.3 km/h 77 % 0 mm
14:49 8.8 °C 4.4 °C 1029.7 hPa SSE 14.8 km/h 10.6 km/h 74 % 0 mm
14:54 8.9 °C 4.5 °C 1029.7 hPa SSE 11.1 km/h 7.9 km/h 74 % 0 mm
14:59 8.9 °C 4.5 °C 1029.7 hPa South 16.7 km/h 10.8 km/h 74 % 0 mm
15:04 8.8 °C 4.4 °C 1029.7 hPa South 20.4 km/h 8.9 km/h 74 % 0 mm
15:09 8.9 °C 4.6 °C 1029.7 hPa SSE 18.5 km/h 10.5 km/h 74 % 0 mm
15:14 8.9 °C 4.4 °C 1029.7 hPa SSE 13 km/h 12.1 km/h 73 % 0 mm
15:19 8.9 °C 4.3 °C 1029.7 hPa SSE 18.5 km/h 9.2 km/h 73 % 0 mm
15:24 8.8 °C 4.1 °C 1029.7 hPa SSE 11.1 km/h 7.2 km/h 72 % 0 mm
15:29 8.8 °C 3.8 °C 1029.7 hPa SSE 13 km/h 9.3 km/h 71 % 0 mm
15:34 8.8 °C 3.8 °C 1029.7 hPa South 14.8 km/h 7.9 km/h 71 % 0 mm
15:39 8.8 °C 4 °C 1029.7 hPa South 11.1 km/h 7.9 km/h 72 % 0 mm
15:44 8.8 °C 4 °C 1029.7 hPa SSW 19.3 km/h 17.2 km/h 72 % 0 mm
15:49 8.7 °C 3.9 °C 1029.7 hPa SSW 16.1 km/h 12.1 km/h 72 % 0 mm
15:54 8.8 °C 4 °C 1029.7 hPa SSW 11.1 km/h 5 km/h 72 % 0 mm
15:59 8.8 °C 4.3 °C 1029.7 hPa SSW 11.3 km/h 6.4 km/h 73 % 0 mm
16:04 8.8 °C 4.1 °C 1029.7 hPa SSW 11.3 km/h 9 km/h 72 % 0 mm
16:09 8.8 °C 4 °C 1029.7 hPa South 13 km/h 5.8 km/h 72 % 0 mm
16:14 8.8 °C 4.2 °C 1029.7 hPa South 12.9 km/h 5.5 km/h 73 % 0 mm
16:19 8.8 °C 4.4 °C 1029.7 hPa South 7.4 km/h 7.7 km/h 74 % 0 mm
16:24 8.8 °C 4.4 °C 1030 hPa South 9.7 km/h 6.3 km/h 74 % 0 mm
16:29 8.7 °C 4.2 °C 1029.7 hPa North 9.3 km/h 4.3 km/h 73 % 0 mm
16:34 8.7 °C 4.3 °C 1030 hPa South 6.4 km/h 4.8 km/h 74 % 0 mm
16:39 8.6 °C 4.2 °C 1030 hPa South 9.3 km/h 6.8 km/h 74 % 0 mm
16:44 8.5 °C 3.9 °C 1030 hPa SSW 13 km/h 7.1 km/h 73 % 0 mm
16:49 8.5 °C 3.6 °C 1030 hPa SSW 18.5 km/h 11.9 km/h 71 % 0 mm
16:54 8.5 °C 3.6 °C 1030 hPa SSW 12.9 km/h 9.2 km/h 71 % 0 mm
16:59 8.5 °C 3.6 °C 1030 hPa South 16.7 km/h 8.5 km/h 71 % 0 mm
17:04 8.5 °C 3.6 °C 1030 hPa South 14.8 km/h 8.2 km/h 71 % 0 mm
17:09 8.5 °C 3.7 °C 1030 hPa South 5.6 km/h 3.2 km/h 72 % 0 mm
17:14 8.5 °C 3.9 °C 1030 hPa South 7.4 km/h 3.9 km/h 73 % 0 mm
17:19 8.5 °C 3.9 °C 1030 hPa South 7.4 km/h 6.3 km/h 73 % 0 mm
17:24 8.5 °C 3.9 °C 1030 hPa South 6.4 km/h 4.3 km/h 73 % 0 mm
17:29 8.4 °C 3.9 °C 1030 hPa South 5.6 km/h 1.6 km/h 73 % 0 mm
17:34 8.4 °C 4 °C 1030 hPa South 6.4 km/h 2.7 km/h 74 % 0 mm
17:39 8.3 °C 3.9 °C 1030 hPa South 5.6 km/h 2.3 km/h 74 % 0 mm
17:44 8.3 °C 3.9 °C 1030.4 hPa South 5.6 km/h 4.3 km/h 74 % 0 mm
17:49 8.3 °C 3.9 °C 1030.4 hPa South 7.4 km/h 4.5 km/h 74 % 0 mm
17:54 8.3 °C 4.1 °C 1030.4 hPa South 3.7 km/h 0.3 km/h 75 % 0 mm
17:59 8.3 °C 4.1 °C 1030.4 hPa South 8 km/h 2.4 km/h 75 % 0 mm
18:04 8.3 °C 4.1 °C 1030.4 hPa South 6.4 km/h 4.3 km/h 75 % 0 mm
18:09 8.3 °C 4.2 °C 1030.4 hPa South 5.6 km/h 4 km/h 75 % 0 mm
18:14 8.3 °C 4.1 °C 1030.4 hPa South 9.3 km/h 4.8 km/h 75 % 0 mm
18:19 8.2 °C 4.1 °C 1030.4 hPa South 5.6 km/h 3.9 km/h 75 % 0 mm
18:24 8.2 °C 4.1 °C 1030.4 hPa South 12.9 km/h 3.7 km/h 75 % 0 mm
18:29 8.4 °C 4 °C 1030.4 hPa South 9.3 km/h 2.7 km/h 74 % 0 mm
18:34 8.4 °C 4 °C 1030.4 hPa South 5.6 km/h 2.7 km/h 74 % 0 mm
18:39 8.4 °C 4.2 °C 1030.4 hPa South 5.6 km/h 4.8 km/h 75 % 0 mm
18:44 8.3 °C 4.2 °C 1030.4 hPa South 7.4 km/h 5.3 km/h 75 % 0 mm
18:49 8.3 °C 4.2 °C 1030.4 hPa South 5.6 km/h 2.3 km/h 75 % 0 mm
18:54 8.3 °C 4.1 °C 1030.4 hPa South 7.4 km/h 2.9 km/h 75 % 0 mm
18:59 8.3 °C 4.3 °C 1030.4 hPa South 11.1 km/h 4.8 km/h 76 % 0 mm
19:04 8.2 °C 4.2 °C 1030.4 hPa SSE 11.1 km/h 6.9 km/h 76 % 0 mm
19:09 8.2 °C 4.4 °C 1030.7 hPa South 9.3 km/h 4.5 km/h 77 % 0 mm
19:14 8.3 °C 4.7 °C 1030.7 hPa South 9.3 km/h 6.6 km/h 78 % 0 mm
19:19 8.2 °C 4.8 °C 1030.7 hPa SSE 11.1 km/h 7.6 km/h 79 % 0 mm
19:24 8.2 °C 5 °C 1030.7 hPa South 14.8 km/h 9.5 km/h 80 % 0 mm
19:29 8.1 °C 5.1 °C 1030.7 hPa North 14.8 km/h 9 km/h 81 % 0 mm
19:34 8.1 °C 5 °C 1030.7 hPa South 9.3 km/h 10.8 km/h 81 % 0 mm
19:39 8 °C 5.1 °C 1030.7 hPa South 9.7 km/h 7.2 km/h 82 % 0 mm
19:44 8 °C 5.3 °C 1030.7 hPa South 13 km/h 8.5 km/h 83 % 0 mm
19:49 7.9 °C 5.2 °C 1030.7 hPa South 8 km/h 4.5 km/h 83 % 0 mm
19:54 7.9 °C 5.3 °C 1031 hPa South 9.3 km/h 7.9 km/h 84 % 0 mm
19:59 7.8 °C 5.3 °C 1031 hPa South 9.3 km/h 6.4 km/h 84 % 0 mm
20:04 7.8 °C 5.3 °C 1031 hPa South 16.7 km/h 9.3 km/h 84 % 0 mm
20:09 7.8 °C 5.3 °C 1031 hPa South 11.3 km/h 5.8 km/h 84 % 0 mm
20:14 7.8 °C 5.3 °C 1031 hPa South 9.3 km/h 5.5 km/h 84 % 0 mm
20:19 7.8 °C 5.1 °C 1031 hPa South 16.7 km/h 8.4 km/h 83 % 0 mm
20:24 7.8 °C 5.1 °C 1031 hPa South 11.3 km/h 9.5 km/h 83 % 0 mm
20:29 7.7 °C 5.2 °C 1031 hPa South 11.1 km/h 8.7 km/h 84 % 0 mm
20:34 7.7 °C 5.2 °C 1031 hPa South 11.1 km/h 7.7 km/h 84 % 0 mm
20:39 7.7 °C 4.9 °C 1031 hPa South 7.4 km/h 6.8 km/h 83 % 0 mm
20:44 7.7 °C 4.9 °C 1031 hPa South 5.6 km/h 4.5 km/h 83 % 0 mm
20:49 7.7 °C 4.8 °C 1031 hPa South 13 km/h 7.7 km/h 82 % 0 mm
20:54 7.6 °C 4.5 °C 1031 hPa South 7.4 km/h 6.8 km/h 81 % 0 mm
20:59 7.6 °C 4.2 °C 1031 hPa South 11.1 km/h 8 km/h 79 % 0 mm
21:04 7.6 °C 4.2 °C 1031 hPa South 6.4 km/h 4 km/h 79 % 0 mm
21:09 7.6 °C 4.2 °C 1031 hPa South 1.9 km/h 3.5 km/h 79 % 0 mm
21:14 7.6 °C 3.9 °C 1031.4 hPa North 6.4 km/h 6 km/h 78 % 0 mm
21:19 7.6 °C 3.9 °C 1031 hPa South 5.6 km/h 3.1 km/h 78 % 0 mm
21:24 7.6 °C 3.8 °C 1031.4 hPa North 5.6 km/h 2.9 km/h 77 % 0 mm
21:29 7.6 °C 3.8 °C 1031.4 hPa South 5.6 km/h 1.1 km/h 77 % 0 mm
21:34 7.6 °C 3.8 °C 1031.4 hPa South 6.4 km/h 4 km/h 77 % 0 mm
21:39 7.6 °C 3.8 °C 1031 hPa South 7.4 km/h 4 km/h 77 % 0 mm
21:44 7.7 °C 3.9 °C 1031 hPa South 5.6 km/h 2.6 km/h 77 % 0 mm
21:49 7.7 °C 3.9 °C 1031 hPa South 9.3 km/h 6.4 km/h 77 % 0 mm
21:54 7.7 °C 3.9 °C 1031 hPa South 5.6 km/h 3.5 km/h 77 % 0 mm
21:59 7.7 °C 3.9 °C 1031 hPa South 5.6 km/h 1.8 km/h 77 % 0 mm
22:04 7.7 °C 3.9 °C 1031.4 hPa South 11.1 km/h 5.6 km/h 77 % 0 mm
22:09 7.7 °C 3.7 °C 1031.4 hPa South 7.4 km/h 4.7 km/h 76 % 0 mm
22:14 7.7 °C 3.9 °C 1031.4 hPa South 7.4 km/h 4.2 km/h 77 % 0 mm
22:19 7.8 °C 3.8 °C 1031.4 hPa South 13 km/h 8.9 km/h 76 % 0 mm
22:24 7.8 °C 3.8 °C 1031.4 hPa North 7.4 km/h 3.9 km/h 76 % 0 mm
22:29 7.8 °C 3.8 °C 1031.4 hPa South 13 km/h 11.7 km/h 76 % 0 mm
22:34 7.8 °C 3.8 °C 1031.4 hPa South 9.3 km/h 5.8 km/h 76 % 0 mm
22:39 7.8 °C 3.8 °C 1031 hPa South 13 km/h 6.4 km/h 76 % 0 mm
22:44 7.7 °C 3.8 °C 1031 hPa South 9.3 km/h 6 km/h 76 % 0 mm
22:49 7.7 °C 3.6 °C 1031 hPa South 11.1 km/h 7.6 km/h 75 % 0 mm
22:54 7.7 °C 3.6 °C 1031 hPa South 13 km/h 9.7 km/h 75 % 0 mm
22:59 7.7 °C 3.6 °C 1031 hPa South 12.9 km/h 4.2 km/h 75 % 0 mm
23:04 7.7 °C 3.6 °C 1031 hPa South 13 km/h 8 km/h 75 % 0 mm
23:09 7.7 °C 3.6 °C 1031 hPa South 16.7 km/h 10.8 km/h 75 % 0 mm
23:14 7.7 °C 3.6 °C 1031 hPa South 7.4 km/h 5.3 km/h 75 % 0 mm
23:19 7.7 °C 3.6 °C 1031 hPa South 9.3 km/h 7.4 km/h 75 % 0 mm
23:24 7.7 °C 3.5 °C 1031 hPa South 9.7 km/h 5 km/h 75 % 0 mm
23:29 7.7 °C 3.3 °C 1031 hPa South 11.1 km/h 7.4 km/h 74 % 0 mm
23:34 7.6 °C 3.3 °C 1031 hPa South 7.4 km/h 8.4 km/h 74 % 0 mm
23:39 7.7 °C 3.5 °C 1031 hPa South 9.3 km/h 6.4 km/h 75 % 0 mm
23:44 7.6 °C 3.4 °C 1031 hPa South 9.7 km/h 8.5 km/h 75 % 0 mm
23:49 7.6 °C 3.4 °C 1031 hPa South 11.1 km/h 6.8 km/h 75 % 0 mm
23:54 7.6 °C 3.4 °C 1031 hPa South 6.4 km/h 6.1 km/h 75 % 0 mm
23:59 7.5 °C 3.3 °C 1031 hPa South 9.3 km/h 6.9 km/h 75 % 0 mm
Ararat Weather
Compliments of Weather Underground - 2.25 mb
Click here to send mail.


ABOUT

Live weather data from Ararat, Victoria, Australia, 3377
Data uploaded from Cumulus every 5 minutes to Weather Underground.
This site then downloads the raw data for formatting and display.
Metric and imperial data can be displayed. Graphs and historical data available.
Includes Sun and Moon times and rain image live from BOM.

Check out Ararat Weather on Facebook, Twitter and Google +

Help support ongoing costs by checking out the ads





Follow @AraratWeather